Time;durP1;ratioP1;P1;durP2;ratioP2;P2;SDS_P1;SDS_P2;PMS_P1;PMS_P2;Temp;Humidity;BMP_temperature;BMP_pressure;BME280_temperature;BME280_humidity;BME280_pressure;Samples;Min_cycle;Max_cycle;Signal;HPM_P1;HPM_P2
2021/08/02 00:00:17;;;;;;;5.78;3.50;;;18.20;98.50;;;;;;5012640;28;20034;-70
2021/08/02 00:03:06;;;;;;;5.25;3.20;;;18.20;98.50;;;;;;5021088;28;20029;-70
2021/08/02 00:05:54;;;;;;;3.45;2.83;;;18.20;98.50;;;;;;5003858;28;20046;-70
2021/08/02 00:08:38;;;;;;;5.07;3.30;;;18.20;98.50;;;;;;5012023;28;20040;-69
2021/08/02 00:11:31;;;;;;;4.38;3.08;;;18.10;98.40;;;;;;5008747;28;20100;-70
2021/08/02 00:14:19;;;;;;;5.30;3.40;;;18.20;98.40;;;;;;5009687;28;20498;-69
2021/08/02 00:17:05;;;;;;;5.93;3.63;;;18.10;98.50;;;;;;4991388;28;20041;-70
2021/08/02 00:19:50;;;;;;;4.85;3.67;;;18.10;98.50;;;;;;4993072;28;20037;-70
2021/08/02 00:22:35;;;;;;;4.43;3.55;;;18.10;98.50;;;;;;5011264;28;20672;-70
2021/08/02 00:25:19;;;;;;;5.85;3.20;;;18.10;98.60;;;;;;5012442;28;20455;-69
2021/08/02 00:28:04;;;;;;;4.85;2.97;;;18.10;98.60;;;;;;5005132;28;20088;-71
2021/08/02 00:30:49;;;;;;;3.92;2.90;;;18.10;98.60;;;;;;5021966;28;20040;-70
2021/08/02 00:33:33;;;;;;;3.50;2.83;;;18.10;98.60;;;;;;5028430;28;20049;-70
2021/08/02 00:36:21;;;;;;;4.53;3.53;;;18.10;98.60;;;;;;5028802;28;20440;-70
2021/08/02 00:39:19;;;;;;;5.25;3.75;;;18.10;98.60;;;;;;5028988;28;20045;-70
2021/08/02 00:42:32;;;;;;;4.15;3.30;;;18.10;98.70;;;;;;5026674;28;20112;-70
2021/08/02 00:45:22;;;;;;;6.57;3.33;;;18.10;98.60;;;;;;5028906;28;20049;-70
2021/08/02 00:48:12;;;;;;;4.78;3.42;;;18.10;98.60;;;;;;5014109;28;20044;-72
2021/08/02 00:51:01;;;;;;;4.90;3.47;;;18.10;98.70;;;;;;5014015;28;20505;-71
2021/08/02 00:53:47;;;;;;;4.00;3.28;;;18.10;98.60;;;;;;5015133;28;20504;-71
2021/08/02 00:56:34;;;;;;;4.38;3.40;;;18.10;98.60;;;;;;5010025;28;20044;-71
2021/08/02 00:59:19;;;;;;;5.95;3.60;;;18.10;98.60;;;;;;5015203;28;20109;-72
2021/08/02 01:02:04;;;;;;;3.60;2.95;;;18.10;98.50;;;;;;5003179;28;20057;-71
2021/08/02 01:04:50;;;;;;;4.38;3.28;;;18.10;98.60;;;;;;4995765;28;20100;-71
2021/08/02 01:07:40;;;;;;;3.90;3.00;;;18.10;98.60;;;;;;5009986;28;20085;-71
2021/08/02 01:10:26;;;;;;;4.70;2.85;;;18.10;98.80;;;;;;5029644;28;20091;-71
2021/08/02 01:13:12;;;;;;;3.60;2.92;;;18.10;98.60;;;;;;5012765;28;20033;-70
2021/08/02 01:16:00;;;;;;;5.35;3.67;;;18.10;98.60;;;;;;5013687;28;20152;-70
2021/08/02 01:18:46;;;;;;;4.75;3.40;;;18.10;98.60;;;;;;5015135;28;20088;-70
2021/08/02 01:21:32;;;;;;;4.80;3.85;;;18.10;98.50;;;;;;5012024;28;20052;-70
2021/08/02 01:24:17;;;;;;;3.92;3.15;;;18.10;98.50;;;;;;5015237;28;20164;-70
2021/08/02 01:27:42;;;;;;;3.80;2.90;;;18.10;98.50;;;;;;5009542;28;20040;-71
2021/08/02 01:30:26;;;;;;;4.20;3.40;;;18.10;98.50;;;;;;5013831;28;20273;-70
2021/08/02 01:33:11;;;;;;;4.80;3.58;;;18.10;98.40;;;;;;5004946;28;20099;-71
2021/08/02 01:35:57;;;;;;;4.53;3.40;;;18.10;98.50;;;;;;5008188;28;20093;-70
2021/08/02 01:38:41;;;;;;;4.15;3.05;;;18.10;98.60;;;;;;5011913;28;20477;-69
2021/08/02 01:41:26;;;;;;;4.25;3.50;;;18.10;98.50;;;;;;4995210;28;20041;-70
2021/08/02 01:44:10;;;;;;;;;;;18.10;98.50;;;;;;5011199;28;20184;-70
2021/08/02 01:47:04;;;;;;;3.95;2.92;;;18.10;98.30;;;;;;5014484;28;19917;-69
2021/08/02 01:50:00;;;;;;;4.78;3.38;;;18.10;98.40;;;;;;5012017;28;20089;-70
2021/08/02 01:52:57;;;;;;;6.30;3.92;;;18.10;98.50;;;;;;5013509;28;20126;-69
2021/08/02 01:55:47;;;;;;;4.10;3.22;;;18.10;98.40;;;;;;5006320;28;20040;-69
2021/08/02 01:58:36;;;;;;;4.65;3.33;;;18.10;98.30;;;;;;5014376;28;20505;-69
2021/08/02 02:01:23;;;;;;;4.97;2.83;;;18.20;98.20;;;;;;5013048;28;20516;-69
2021/08/02 02:04:08;;;;;;;3.38;2.70;;;18.20;98.20;;;;;;5012153;28;20745;-70
2021/08/02 02:06:55;;;;;;;3.80;2.78;;;18.20;98.20;;;;;;5003014;28;20438;-70
2021/08/02 02:09:40;;;;;;;5.70;3.20;;;18.20;98.20;;;;;;5012709;28;20041;-69
2021/08/02 02:12:25;;;;;;;4.00;2.80;;;18.20;98.20;;;;;;5012274;28;20033;-68
2021/08/02 02:15:10;;;;;;;5.30;3.30;;;18.20;98.20;;;;;;5012664;28;20045;-69
2021/08/02 02:17:55;;;;;;;3.65;2.53;;;18.20;98.10;;;;;;5012361;28;20152;-69
2021/08/02 02:20:43;;;;;;;3.45;2.75;;;18.20;98.00;;;;;;5012919;28;20076;-69
2021/08/02 02:23:28;;;;;;;3.97;2.80;;;18.20;97.80;;;;;;5007560;28;20044;-70
2021/08/02 02:26:14;;;;;;;4.55;2.22;;;18.20;97.80;;;;;;5002754;28;20072;-69
2021/08/02 02:29:00;;;;;;;4.55;2.60;;;18.20;97.60;;;;;;5012054;28;20037;-69
2021/08/02 02:31:47;;;;;;;4.07;2.97;;;18.20;97.50;;;;;;5001887;28;20037;-69
2021/08/02 02:34:33;;;;;;;3.03;2.13;;;18.30;97.50;;;;;;5012281;28;20045;-69
2021/08/02 02:37:24;;;;;;;4.35;2.38;;;18.20;97.30;;;;;;5013351;28;20735;-69
2021/08/02 02:40:09;;;;;;;2.97;2.08;;;18.20;97.30;;;;;;5012482;28;20057;-69
2021/08/02 02:42:53;;;;;;;3.13;2.30;;;18.20;97.30;;;;;;5012964;28;20053;-69
2021/08/02 02:45:39;;;;;;;3.22;2.80;;;18.20;97.30;;;;;;5005429;28;20096;-69
2021/08/02 02:48:24;;;;;;;3.60;2.45;;;18.30;97.20;;;;;;4994117;28;20041;-69
2021/08/02 02:51:10;;;;;;;3.65;2.20;;;18.30;97.10;;;;;;5010630;28;20045;-69
2021/08/02 02:53:58;;;;;;;4.68;2.80;;;18.20;97.20;;;;;;5010797;28;20041;-70
2021/08/02 02:56:42;;;;;;;3.55;2.35;;;18.20;97.20;;;;;;5001032;28;20084;-69
2021/08/02 02:59:26;;;;;;;3.67;2.87;;;18.20;97.20;;;;;;5011932;28;20081;-69
2021/08/02 03:02:10;;;;;;;4.00;3.10;;;18.20;97.10;;;;;;5012618;28;20112;-70
2021/08/02 03:04:58;;;;;;;3.97;2.88;;;18.20;97.10;;;;;;5011584;28;20056;-70
2021/08/02 03:07:44;;;;;;;3.47;2.50;;;18.20;97.00;;;;;;4997818;28;20045;-69
2021/08/02 03:10:29;;;;;;;3.47;2.45;;;18.20;97.20;;;;;;5010688;28;20065;-69
2021/08/02 03:13:13;;;;;;;5.57;2.70;;;18.20;97.30;;;;;;5012162;28;20041;-69
2021/08/02 03:15:57;;;;;;;5.17;3.90;;;18.20;97.30;;;;;;5011011;28;20049;-69
2021/08/02 03:18:41;;;;;;;3.60;2.55;;;18.20;97.30;;;;;;5012780;28;20100;-69
2021/08/02 03:21:25;;;;;;;4.40;2.38;;;18.20;97.30;;;;;;4996673;28;20099;-69
2021/08/02 03:24:30;;;;;;;8.17;3.33;;;18.20;97.30;;;;;;5011091;28;20040;-69
2021/08/02 03:27:23;;;;;;;3.67;2.53;;;18.10;97.20;;;;;;5012956;28;20044;-69
2021/08/02 03:30:08;;;;;;;5.07;4.00;;;18.10;97.30;;;;;;5009582;28;20101;-70
2021/08/02 03:32:53;;;;;;;3.95;3.08;;;18.00;97.30;;;;;;5012027;28;20450;-70
2021/08/02 03:35:38;;;;;;;4.75;3.10;;;18.00;97.30;;;;;;5010967;28;20053;-70
2021/08/02 03:38:24;;;;;;;5.20;3.35;;;18.00;97.40;;;;;;5011146;28;20116;-70
2021/08/02 03:41:12;;;;;;;5.40;2.95;;;18.00;97.40;;;;;;4996810;28;20049;-70
2021/08/02 03:43:59;;;;;;;4.22;2.63;;;17.90;97.50;;;;;;4996923;28;20076;-71
2021/08/02 03:46:45;;;;;;;4.10;2.92;;;18.00;97.50;;;;;;5011591;28;20494;-71
2021/08/02 03:49:31;;;;;;;4.63;3.15;;;17.90;97.50;;;;;;5011026;28;20050;-71
2021/08/02 03:52:17;;;;;;;4.53;2.90;;;17.90;97.60;;;;;;5003701;28;20077;-70
2021/08/02 03:55:06;;;;;;;5.50;2.83;;;17.90;97.60;;;;;;5009989;28;20054;-71
2021/08/02 03:57:51;;;;;;;5.00;3.10;;;17.90;97.60;;;;;;5012099;28;20037;-71
2021/08/02 04:00:37;;;;;;;5.82;3.15;;;18.00;97.70;;;;;;5011477;28;20026;-70
2021/08/02 04:03:23;;;;;;;4.43;2.90;;;18.00;97.70;;;;;;5010699;28;20033;-70
2021/08/02 04:06:10;;;;;;;4.30;2.83;;;18.00;97.70;;;;;;5010308;28;20033;-70
2021/08/02 04:08:56;;;;;;;3.45;2.63;;;18.10;97.80;;;;;;5009997;28;20037;-71
2021/08/02 04:11:43;;;;;;;6.07;2.67;;;18.10;97.70;;;;;;5008565;28;20448;-70
2021/08/02 04:14:29;;;;;;;4.03;2.90;;;18.10;97.70;;;;;;4996344;28;20033;-70
2021/08/02 04:17:15;;;;;;;3.65;2.67;;;18.10;97.60;;;;;;5012841;28;20037;-70
2021/08/02 04:20:03;;;;;;;5.28;2.70;;;18.10;97.50;;;;;;5010125;28;20066;-70
2021/08/02 04:22:49;;;;;;;3.00;2.20;;;18.10;97.50;;;;;;5003156;28;20025;-70
2021/08/02 04:25:34;;;;;;;4.65;2.80;;;18.20;97.40;;;;;;5009171;28;20132;-70
2021/08/02 04:28:20;;;;;;;3.10;2.22;;;18.20;97.30;;;;;;5004916;28;20508;-69
2021/08/02 04:31:06;;;;;;;5.28;2.50;;;18.10;97.30;;;;;;5009117;28;20034;-70
2021/08/02 04:33:52;;;;;;;3.05;2.20;;;18.20;97.10;;;;;;4996491;28;20056;-69
2021/08/02 04:36:39;;;;;;;5.47;2.28;;;18.20;97.00;;;;;;5007532;28;20405;-71
2021/08/02 04:39:25;;;;;;;3.40;1.80;;;18.20;96.80;;;;;;5009973;28;20084;-69
2021/08/02 04:42:11;;;;;;;3.60;2.20;;;18.20;96.70;;;;;;5010189;28;20030;-69
2021/08/02 04:44:56;;;;;;;4.38;2.05;;;18.20;96.70;;;;;;5001690;28;20050;-70
2021/08/02 04:47:42;;;;;;;2.65;1.70;;;18.20;96.70;;;;;;5001428;28;20028;-70
2021/08/02 04:50:28;;;;;;;3.47;2.28;;;18.20;96.70;;;;;;5009843;28;20046;-70
2021/08/02 04:53:14;;;;;;;3.42;2.08;;;18.30;96.60;;;;;;4995043;28;20030;-70
2021/08/02 04:56:00;;;;;;;4.90;1.90;;;18.30;96.60;;;;;;5024778;28;20128;-71
2021/08/02 04:58:46;;;;;;;3.75;2.10;;;18.40;96.60;;;;;;5016048;28;20125;-72
2021/08/02 05:01:32;;;;;;;2.80;2.00;;;18.30;96.50;;;;;;5003246;28;20120;-72
2021/08/02 05:04:18;;;;;;;4.82;2.40;;;18.30;96.60;;;;;;5017038;28;20673;-71
2021/08/02 05:07:03;;;;;;;4.30;2.28;;;18.40;96.70;;;;;;5010770;28;20371;-72
2021/08/02 05:09:49;;;;;;;3.20;2.17;;;18.40;96.60;;;;;;5008793;28;20038;-73
2021/08/02 05:12:35;;;;;;;3.38;2.25;;;18.30;96.50;;;;;;5010468;28;20048;-73
2021/08/02 05:15:21;;;;;;;3.25;2.45;;;18.30;96.60;;;;;;5009732;28;20050;-73
2021/08/02 05:18:07;;;;;;;5.32;3.05;;;18.30;96.60;;;;;;5011896;28;20510;-73
2021/08/02 05:20:53;;;;;;;4.60;2.67;;;18.30;96.60;;;;;;4993815;28;20506;-73
2021/08/02 05:23:38;;;;;;;6.72;2.55;;;18.30;96.70;;;;;;5010803;28;20478;-73
2021/08/02 05:26:24;;;;;;;3.80;2.25;;;18.30;96.60;;;;;;4977644;28;20038;-73
2021/08/02 05:29:10;;;;;;;6.30;2.10;;;18.40;96.50;;;;;;4984686;28;20199;-73
2021/08/02 05:31:56;;;;;;;4.28;2.90;;;18.40;96.40;;;;;;5011039;28;20030;-73
2021/08/02 05:34:29;;;;;;;5.20;2.90;;;18.40;96.30;;;;;;5004986;28;20025;-72
2021/08/02 05:37:14;;;;;;;6.25;2.45;;;18.40;96.30;;;;;;5015384;28;20036;-73
2021/08/02 05:39:57;;;;;;;5.87;2.53;;;18.40;96.30;;;;;;5017829;28;20080;-73
2021/08/02 05:42:41;;;;;;;6.47;2.40;;;18.50;96.30;;;;;;5018408;28;20061;-73
2021/08/02 05:45:25;;;;;;;3.72;2.25;;;18.60;96.20;;;;;;5012699;28;20056;-72
2021/08/02 05:48:10;;;;;;;4.40;2.25;;;18.60;96.30;;;;;;5013275;28;20410;-72
2021/08/02 05:50:53;;;;;;;7.90;2.90;;;18.70;96.20;;;;;;5010567;28;20678;-72
2021/08/02 05:53:38;;;;;;;4.70;2.40;;;18.70;96.00;;;;;;4988566;28;20144;-72
2021/08/02 05:56:22;;;;;;;3.55;2.35;;;18.70;96.10;;;;;;4999116;28;20629;-72
2021/08/02 05:59:06;;;;;;;4.57;2.35;;;18.80;96.00;;;;;;5012788;28;20544;-70
2021/08/02 06:01:50;;;;;;;3.85;2.50;;;18.80;95.90;;;;;;5013659;28;20635;-70
2021/08/02 06:04:34;;;;;;;3.50;1.97;;;18.80;95.80;;;;;;5012869;28;20115;-72
2021/08/02 06:07:19;;;;;;;3.40;2.13;;;18.90;95.80;;;;;;4997457;28;20121;-71
2021/08/02 06:10:04;;;;;;;4.47;2.10;;;19.00;95.80;;;;;;5011634;28;20089;-71
2021/08/02 06:12:48;;;;;;;5.57;2.33;;;19.10;95.90;;;;;;5013549;28;20120;-71
2021/08/02 06:15:32;;;;;;;4.23;2.70;;;19.10;95.90;;;;;;5011975;28;20049;-70
2021/08/02 06:18:16;;;;;;;4.77;2.30;;;19.20;95.70;;;;;;5012101;28;20395;-70
2021/08/02 06:21:00;;;;;;;6.28;2.67;;;19.30;95.60;;;;;;5006570;28;20758;-70
2021/08/02 06:23:44;;;;;;;4.10;2.37;;;19.30;95.70;;;;;;5014055;28;20036;-70
2021/08/02 06:26:30;;;;;;;4.30;2.28;;;19.30;95.60;;;;;;5007715;28;20401;-71
2021/08/02 06:29:15;;;;;;;3.90;2.10;;;19.40;95.30;;;;;;5012200;28;20513;-71
2021/08/02 06:31:58;;;;;;;4.07;2.30;;;19.50;95.20;;;;;;5011395;28;20056;-69
2021/08/02 06:34:43;;;;;;;4.00;2.67;;;19.50;94.90;;;;;;5012057;28;20114;-73
2021/08/02 06:37:27;;;;;;;6.13;2.42;;;19.60;94.50;;;;;;5013914;28;20724;-69
2021/08/02 06:40:13;;;;;;;3.72;2.03;;;19.60;94.50;;;;;;5011455;28;20033;-70
2021/08/02 06:42:58;;;;;;;5.07;3.20;;;19.70;94.60;;;;;;5013621;28;20088;-70
2021/08/02 06:45:42;;;;;;;2.65;1.77;;;19.70;94.10;;;;;;5011716;28;20108;-70
2021/08/02 06:48:27;;;;;;;3.70;1.67;;;19.70;93.90;;;;;;5012406;28;20513;-70
2021/08/02 06:51:12;;;;;;;;;;;19.70;94.10;;;;;;5010269;28;20347;-69
2021/08/02 06:53:56;;;;;;;4.97;2.03;;;19.80;93.70;;;;;;4997384;28;19951;-70
2021/08/02 06:56:42;;;;;;;3.40;1.92;;;19.80;93.50;;;;;;5005131;28;20040;-70
2021/08/02 06:59:26;;;;;;;4.18;1.80;;;19.90;93.20;;;;;;5009597;28;20037;-69
2021/08/02 07:02:09;;;;;;;3.15;1.73;;;19.90;93.10;;;;;;5008831;28;20141;-70
2021/08/02 07:04:54;;;;;;;4.13;1.92;;;20.00;93.30;;;;;;5003962;28;20040;-69
2021/08/02 07:07:38;;;;;;;4.22;1.92;;;20.10;93.20;;;;;;5003294;28;20122;-69
2021/08/02 07:10:22;;;;;;;2.83;1.60;;;20.30;93.10;;;;;;4995055;28;20036;-69
2021/08/02 07:13:06;;;;;;;2.90;1.47;;;20.30;92.40;;;;;;5006741;28;20305;-69
2021/08/02 07:15:50;;;;;;;3.47;1.70;;;20.30;92.10;;;;;;5008641;28;20096;-70
2021/08/02 07:18:34;;;;;;;4.10;1.88;;;20.40;92.00;;;;;;5008454;28;20064;-70
2021/08/02 07:21:19;;;;;;;2.30;1.67;;;20.40;91.60;;;;;;5003132;28;20056;-70
2021/08/02 07:24:04;;;;;;;3.67;1.20;;;20.40;90.90;;;;;;4989995;28;20057;-70
2021/08/02 07:26:48;;;;;;;3.72;1.38;;;20.30;90.60;;;;;;5010319;28;20584;-70
2021/08/02 07:29:32;;;;;;;1.77;1.20;;;20.30;90.60;;;;;;5006726;28;20084;-70
2021/08/02 07:32:16;;;;;;;3.00;1.70;;;20.30;90.30;;;;;;5005939;28;20076;-70
2021/08/02 07:35:00;;;;;;;3.72;1.40;;;20.30;90.10;;;;;;5002509;28;20556;-70
2021/08/02 07:37:44;;;;;;;2.13;1.27;;;20.30;90.30;;;;;;5009155;28;20041;-70
2021/08/02 07:40:30;;;;;;;1.92;1.27;;;20.30;90.00;;;;;;5006858;28;20037;-71
2021/08/02 07:43:16;;;;;;;2.42;1.58;;;20.40;89.50;;;;;;5007544;28;20116;-70
2021/08/02 07:46:02;;;;;;;5.50;1.50;;;20.40;89.10;;;;;;5005742;28;20042;-70
2021/08/02 07:48:52;;;;;;;5.35;1.88;;;20.50;89.60;;;;;;5007452;28;20667;-69
2021/08/02 07:51:37;;;;;;;3.28;1.92;;;20.60;89.70;;;;;;4988253;28;20104;-70
2021/08/02 07:54:23;;;;;;;3.45;1.60;;;20.70;89.20;;;;;;4999476;28;20041;-71
2021/08/02 07:57:09;;;;;;;4.18;1.80;;;20.80;88.00;;;;;;5009732;28;20028;-68
2021/08/02 07:59:56;;;;;;;2.03;1.38;;;20.90;88.10;;;;;;4994116;28;20034;-69
2021/08/02 08:02:42;;;;;;;4.45;1.40;;;21.00;87.20;;;;;;5004241;28;20503;-69
2021/08/02 08:05:29;;;;;;;2.15;1.50;;;21.00;86.70;;;;;;5008742;28;20567;-69
2021/08/02 08:08:15;;;;;;;3.03;1.60;;;21.10;86.40;;;;;;5016697;28;20048;-69
2021/08/02 08:11:01;;;;;;;2.72;1.80;;;21.10;86.50;;;;;;5001784;28;20033;-69
2021/08/02 08:13:46;;;;;;;2.55;1.67;;;21.10;86.20;;;;;;5008572;28;20120;-69
2021/08/02 08:16:32;;;;;;;3.05;1.75;;;21.10;85.60;;;;;;5008311;28;20061;-69
2021/08/02 08:19:18;;;;;;;3.13;1.52;;;21.00;85.00;;;;;;5007144;28;20025;-69
2021/08/02 08:22:04;;;;;;;3.78;1.70;;;20.90;84.90;;;;;;4993769;28;20085;-69
2021/08/02 08:24:50;;;;;;;2.95;1.27;;;20.90;85.00;;;;;;5003539;28;20041;-69
2021/08/02 08:27:36;;;;;;;4.43;1.40;;;20.90;84.80;;;;;;5003365;28;20644;-69
2021/08/02 08:30:22;;;;;;;2.17;1.30;;;20.90;84.40;;;;;;5005200;28;20036;-69
2021/08/02 08:33:08;;;;;;;2.83;1.40;;;20.90;83.40;;;;;;5008761;28;20050;-68
2021/08/02 08:35:55;;;;;;;4.35;1.40;;;21.00;83.00;;;;;;5004860;28;20029;-69
2021/08/02 08:38:42;;;;;;;3.15;1.58;;;21.10;82.90;;;;;;5006854;28;20482;-68
2021/08/02 08:41:28;;;;;;;2.63;1.58;;;21.10;83.40;;;;;;5010982;28;20158;-67
2021/08/02 08:44:13;;;;;;;13.80;1.95;;;21.20;82.40;;;;;;5008267;28;20368;-67
2021/08/02 08:47:00;;;;;;;6.32;2.00;;;21.30;81.50;;;;;;4997378;28;20482;-69
2021/08/02 08:49:46;;;;;;;2.92;1.30;;;21.20;81.10;;;;;;5003772;28;20042;-69
2021/08/02 08:52:36;;;;;;;4.88;1.77;;;21.20;80.40;;;;;;4992910;28;20037;-68
2021/08/02 08:55:22;;;;;;;1.90;1.52;;;21.30;80.10;;;;;;4990108;28;20423;-68
2021/08/02 08:58:08;;;;;;;3.30;1.70;;;21.40;77.90;;;;;;5007996;28;20040;-69
2021/08/02 09:01:05;;;;;;;3.22;1.30;;;21.40;77.70;;;;;;5014241;28;20041;-68
2021/08/02 09:03:52;;;;;;;2.97;1.48;;;21.40;76.60;;;;;;5010682;28;20083;-68
2021/08/02 09:06:48;;;;;;;3.13;1.45;;;21.40;76.70;;;;;;5004371;28;20034;-68
2021/08/02 09:09:35;;;;;;;3.92;1.35;;;21.60;77.10;;;;;;5008319;28;20114;-68
2021/08/02 09:12:22;;;;;;;2.13;1.35;;;21.70;76.60;;;;;;5011489;28;20061;-69
2021/08/02 09:15:09;;;;;;;3.92;1.33;;;21.90;76.10;;;;;;5007184;28;20030;-68
2021/08/02 09:17:54;;;;;;;3.00;1.15;;;21.90;75.90;;;;;;5008009;28;20036;-69
2021/08/02 09:20:40;;;;;;;7.50;1.50;;;22.00;75.60;;;;;;5007370;28;20523;-68
2021/08/02 09:23:27;;;;;;;4.05;1.90;;;22.00;75.30;;;;;;5009907;28;20026;-69
2021/08/02 09:26:13;;;;;;;5.88;1.55;;;22.00;75.40;;;;;;4998135;28;20037;-68
2021/08/02 09:28:59;;;;;;;3.55;1.35;;;22.10;75.30;;;;;;5010019;28;20030;-69
2021/08/02 09:31:47;;;;;;;3.55;1.30;;;22.00;73.90;;;;;;5011247;28;20076;-69
2021/08/02 09:34:44;;;;;;;3.10;1.50;;;22.10;73.20;;;;;;5007217;28;20120;-69
2021/08/02 09:37:28;;;;;;;3.75;1.60;;;22.20;72.90;;;;;;5011560;28;20048;-69
2021/08/02 09:40:13;;;;;;;4.50;1.83;;;22.20;73.20;;;;;;4997058;28;20407;-69
2021/08/02 09:42:57;;;;;;;5.07;1.30;;;22.30;73.10;;;;;;5008683;28;20167;-69
2021/08/02 09:45:51;;;;;;;3.22;1.58;;;22.40;72.60;;;;;;5009667;28;20036;-69
2021/08/02 09:48:38;;;;;;;2.70;1.40;;;22.50;71.70;;;;;;5010534;28;20057;-69
2021/08/02 09:51:22;;;;;;;2.70;1.30;;;22.60;70.50;;;;;;5007733;28;20076;-69
2021/08/02 09:54:06;;;;;;;2.08;1.35;;;22.60;70.20;;;;;;5009884;28;20029;-69
2021/08/02 09:56:51;;;;;;;2.30;1.40;;;22.60;70.50;;;;;;5009750;28;20157;-69
2021/08/02 09:59:17;;;;;;;2.92;1.00;;;22.60;70.50;;;;;;5017683;28;20402;-69
2021/08/02 10:01:46;;;;;;;2.88;1.30;;;22.60;69.70;;;;;;5011791;28;20029;-69
2021/08/02 10:04:11;;;;;;;1.95;1.40;;;22.60;70.30;;;;;;5010648;28;20379;-69
2021/08/02 10:06:37;;;;;;;3.42;1.52;;;22.60;69.80;;;;;;5012011;28;20040;-69
2021/08/02 10:09:03;;;;;;;3.22;1.88;;;22.70;69.60;;;;;;5009274;28;20113;-69
2021/08/02 10:11:30;;;;;;;2.67;1.25;;;22.70;69.10;;;;;;5006881;28;20116;-69
2021/08/02 10:13:56;;;;;;;2.70;1.40;;;22.80;68.50;;;;;;5009776;28;20498;-69
2021/08/02 10:16:27;;;;;;;3.50;1.50;;;22.80;67.90;;;;;;5012514;28;20128;-69
2021/08/02 10:19:07;;;;;;;5.35;1.70;;;22.70;67.50;;;;;;5007178;28;20034;-69
2021/08/02 10:21:38;;;;;;;4.82;2.05;;;22.70;68.20;;;;;;4994770;28;20029;-69
2021/08/02 10:24:06;;;;;;;2.85;1.60;;;22.80;68.50;;;;;;5012178;28;20067;-69
2021/08/02 10:26:31;;;;;;;4.22;1.48;;;22.80;67.00;;;;;;5011492;28;20034;-69
2021/08/02 10:28:59;;;;;;;5.07;1.70;;;22.90;67.20;;;;;;5010826;28;20021;-69
2021/08/02 10:31:26;;;;;;;4.90;1.90;;;23.00;66.40;;;;;;4994365;28;20557;-69
2021/08/02 10:33:53;;;;;;;3.28;1.70;;;23.10;66.60;;;;;;5010687;28;20034;-69
2021/08/02 10:36:20;;;;;;;2.13;1.30;;;23.20;66.70;;;;;;5002526;28;20041;-69
2021/08/02 10:38:48;;;;;;;3.03;1.40;;;23.20;66.30;;;;;;5009530;28;20088;-69
2021/08/02 10:41:26;;;;;;;2.55;1.35;;;23.20;66.10;;;;;;5010072;28;20033;-70
2021/08/02 10:43:53;;;;;;;3.45;1.23;;;23.20;66.30;;;;;;5010260;28;20466;-69
2021/08/02 10:46:28;;;;;;;4.85;1.50;;;23.20;65.80;;;;;;4988311;28;20026;-69
2021/08/02 10:49:11;;;;;;;1.98;1.05;;;23.20;65.60;;;;;;5006428;28;20592;-70
2021/08/02 10:51:46;;;;;;;2.65;1.48;;;23.20;65.20;;;;;;5009460;28;20044;-70
2021/08/02 10:54:12;;;;;;;2.58;1.33;;;23.20;65.80;;;;;;5008471;28;20359;-69
2021/08/02 10:56:38;;;;;;;2.15;1.42;;;23.20;65.80;;;;;;5014599;28;20031;-70
2021/08/02 10:59:03;;;;;;;2.88;1.52;;;23.10;65.10;;;;;;5009577;28;20108;-69
2021/08/02 11:01:29;;;;;;;3.95;2.00;;;23.20;64.50;;;;;;5005979;28;20024;-68
2021/08/02 11:03:57;;;;;;;4.90;2.95;;;23.20;64.60;;;;;;5009812;28;20032;-69
2021/08/02 11:06:23;;;;;;;3.80;1.67;;;23.20;64.30;;;;;;5011610;28;20116;-69
2021/08/02 11:08:51;;;;;;;7.15;2.42;;;23.20;64.20;;;;;;5010954;28;20026;-69
2021/08/02 11:11:29;;;;;;;5.63;2.80;;;23.30;64.90;;;;;;5000029;28;20041;-69
2021/08/02 11:14:05;;;;;;;3.35;1.70;;;23.30;64.90;;;;;;5003917;28;20552;-68
2021/08/02 11:16:38;;;;;;;3.95;1.75;;;23.40;63.30;;;;;;5004710;28;20462;-69
2021/08/02 11:19:27;;;;;;;3.20;1.80;;;23.50;61.70;;;;;;5008163;28;20134;-68
2021/08/02 11:21:59;;;;;;;5.53;1.60;;;23.40;62.40;;;;;;5004917;28;20044;-69
2021/08/02 11:24:25;;;;;;;2.17;1.30;;;23.50;62.30;;;;;;5006728;28;20049;-69
2021/08/02 11:26:53;;;;;;;3.45;1.65;;;23.50;62.00;;;;;;5008204;28;20541;-69
2021/08/02 11:29:27;;;;;;;3.97;1.63;;;23.40;61.70;;;;;;5008383;28;20037;-69
2021/08/02 11:32:09;;;;;;;1.80;1.35;;;23.40;60.50;;;;;;5007346;28;20030;-69
2021/08/02 11:34:35;;;;;;;3.00;1.25;;;23.20;59.50;;;;;;5010477;28;20044;-69
2021/08/02 11:37:19;;;;;;;2.95;1.40;;;23.20;59.70;;;;;;5008676;28;20061;-69
2021/08/02 11:39:47;;;;;;;3.20;1.30;;;23.10;59.30;;;;;;5009031;28;20025;-69
2021/08/02 11:42:14;;;;;;;2.42;1.40;;;23.00;59.30;;;;;;5006248;28;20142;-69
2021/08/02 11:44:45;;;;;;;3.50;1.50;;;23.00;59.90;;;;;;5007554;28;20077;-69
2021/08/02 11:47:15;;;;;;;3.22;1.40;;;23.10;60.10;;;;;;5002704;28;20030;-69
2021/08/02 11:49:42;;;;;;;3.10;1.48;;;23.10;59.40;;;;;;5003138;28;20061;-69
2021/08/02 11:52:08;;;;;;;1.80;1.20;;;23.10;59.70;;;;;;5008244;28;20038;-70
2021/08/02 11:54:34;;;;;;;3.25;1.20;;;23.20;59.80;;;;;;5008686;28;20030;-69
2021/08/02 11:57:00;;;;;;;3.40;1.30;;;23.20;59.60;;;;;;5008782;28;20085;-67
2021/08/02 11:59:27;;;;;;;2.67;1.40;;;23.30;59.40;;;;;;5007943;28;20042;-68
2021/08/02 12:01:56;;;;;;;2.25;1.40;;;23.30;59.30;;;;;;5005294;28;20030;-69
2021/08/02 12:04:23;;;;;;;3.10;1.48;;;23.40;59.40;;;;;;5009979;28;20033;-69
2021/08/02 12:06:55;;;;;;;2.88;1.50;;;23.50;59.50;;;;;;5009069;28;20029;-69
2021/08/02 12:09:35;;;;;;;3.08;1.40;;;23.50;59.10;;;;;;5005950;28;20018;-69
2021/08/02 12:12:05;;;;;;;2.15;1.23;;;23.60;59.20;;;;;;5004692;28;20125;-69
2021/08/02 12:14:33;;;;;;;2.88;1.30;;;23.70;56.60;;;;;;5006233;28;20045;-69
2021/08/02 12:17:06;;;;;;;2.45;1.52;;;23.80;57.30;;;;;;5005356;28;20496;-70
2021/08/02 12:19:44;;;;;;;1.77;1.30;;;23.90;56.70;;;;;;5007252;28;20057;-70
2021/08/02 12:22:09;;;;;;;3.10;1.50;;;24.00;56.30;;;;;;5007932;28;20363;-69
2021/08/02 12:24:35;;;;;;;2.20;1.40;;;24.10;55.60;;;;;;5008833;28;20041;-69
2021/08/02 12:27:00;;;;;;;2.58;1.30;;;24.30;55.60;;;;;;5005849;28;20042;-70
2021/08/02 12:29:28;;;;;;;2.47;1.42;;;24.40;55.20;;;;;;5008525;28;20471;-69
2021/08/02 12:31:58;;;;;;;3.40;1.23;;;24.50;54.60;;;;;;5005944;28;20029;-70
2021/08/02 12:34:24;;;;;;;2.30;1.30;;;24.60;55.00;;;;;;5002643;28;20030;-69
2021/08/02 12:36:54;;;;;;;6.60;1.17;;;24.70;54.60;;;;;;5005066;28;20041;-69
2021/08/02 12:39:20;;;;;;;3.60;1.20;;;24.70;54.70;;;;;;5001973;28;20030;-68
2021/08/02 12:41:46;;;;;;;2.17;1.02;;;24.70;54.40;;;;;;5008172;28;20057;-69
2021/08/02 12:44:11;;;;;;;3.38;1.45;;;24.80;53.20;;;;;;4990318;28;20459;-70
2021/08/02 12:46:37;;;;;;;1.52;1.10;;;24.80;53.30;;;;;;5008490;28;20041;-70
2021/08/02 12:49:02;;;;;;;2.53;1.30;;;24.90;52.40;;;;;;5007778;28;20061;-68
2021/08/02 12:51:28;;;;;;;2.25;1.40;;;24.90;52.10;;;;;;5008778;28;20037;-70
2021/08/02 12:53:53;;;;;;;2.17;1.30;;;24.90;52.00;;;;;;5008547;28;20018;-69
2021/08/02 12:56:19;;;;;;;5.70;1.48;;;24.80;52.70;;;;;;5007151;28;20147;-70
2021/08/02 12:58:44;;;;;;;2.78;1.17;;;24.80;52.10;;;;;;5009345;28;20088;-69
2021/08/02 13:01:11;;;;;;;3.33;1.75;;;24.90;51.90;;;;;;5006852;28;20022;-69
2021/08/02 13:03:38;;;;;;;2.42;1.40;;;24.80;51.50;;;;;;5008539;28;20057;-69
2021/08/02 13:06:06;;;;;;;3.42;1.20;;;24.70;52.00;;;;;;5006383;28;20046;-69
2021/08/02 13:08:31;;;;;;;3.03;1.30;;;24.60;51.60;;;;;;5008908;28;20018;-69
2021/08/02 13:10:57;;;;;;;2.75;1.25;;;24.50;51.50;;;;;;5003609;28;20038;-69
2021/08/02 13:13:22;;;;;;;1.58;1.15;;;24.50;51.80;;;;;;5008205;28;20491;-69
2021/08/02 13:15:48;;;;;;;2.60;1.33;;;24.40;51.50;;;;;;5007790;28;20033;-69
2021/08/02 13:18:14;;;;;;;10.25;2.50;;;24.30;51.70;;;;;;5005434;28;20470;-69
2021/08/02 13:20:39;;;;;;;2.25;1.40;;;24.30;51.90;;;;;;5006094;28;20566;-69
2021/08/02 13:26:56;;;;;;;1.90;1.30;;;24.20;52.00;;;;;;5006697;28;20491;-69
2021/08/02 13:28:58;;;;;;;1.92;1.30;;;24.00;52.80;;;;;;5006208;28;20068;-69
2021/08/02 13:31:44;;;;;;;2.80;1.80;;;24.00;52.70;;;;;;5002344;28;20040;-69
2021/08/02 13:34:29;;;;;;;4.38;1.60;;;24.00;52.90;;;;;;5000822;28;20045;-69
2021/08/02 13:37:15;;;;;;;2.20;1.50;;;24.00;52.20;;;;;;5005737;28;20033;-69
2021/08/02 13:39:59;;;;;;;4.90;1.40;;;24.00;52.40;;;;;;4999258;28;20398;-69
2021/08/02 13:42:48;;;;;;;3.88;1.42;;;24.00;52.70;;;;;;5005424;28;20869;-70
2021/08/02 13:45:36;;;;;;;3.00;1.60;;;23.90;52.10;;;;;;5002199;28;20128;-69
2021/08/02 13:48:20;;;;;;;3.08;1.58;;;23.90;52.80;;;;;;5003329;28;20105;-69
2021/08/02 13:51:04;;;;;;;2.60;1.42;;;23.80;52.70;;;;;;5003350;28;20084;-69
2021/08/02 13:53:52;;;;;;;1.95;1.33;;;23.80;53.10;;;;;;5007996;28;20128;-69
2021/08/02 13:56:36;;;;;;;4.20;1.50;;;23.80;52.80;;;;;;5007419;28;20455;-69
2021/08/02 13:59:20;;;;;;;4.65;1.65;;;23.70;53.00;;;;;;5008376;28;20044;-68
2021/08/02 14:02:04;;;;;;;3.20;1.30;;;23.80;53.80;;;;;;5006721;28;20037;-69
2021/08/02 14:04:47;;;;;;;4.00;1.52;;;23.90;54.10;;;;;;5006724;28;20397;-68